Time;durP1;ratioP1;P1;durP2;ratioP2;P2;SDS_P1;SDS_P2;PMS_P1;PMS_P2;Temp;Humidity;BMP_temperature;BMP_pressure;BME280_temperature;BME280_humidity;BME280_pressure;Samples;Min_cycle;Max_cycle;Signal;HPM_P1;HPM_P2
2023/05/26 00:00:42;;;;;;;22.87;5.73;;;;;;;10.38;82.54;101993.47;5030806;28;20251;-71
2023/05/26 00:03:09;;;;;;;18.53;4.80;;;;;;;10.35;83.23;101995.38;5029992;28;20230;-72
2023/05/26 00:05:40;;;;;;;20.40;4.53;;;;;;;10.31;83.09;102005.28;5026342;28;20202;-70
2023/05/26 00:08:07;;;;;;;25.37;5.47;;;;;;;10.27;83.69;102008.13;5028107;28;21030;-71
2023/05/26 00:10:33;;;;;;;18.20;5.00;;;;;;;10.23;83.86;102004.72;5025350;28;20209;-71
2023/05/26 00:13:00;;;;;;;18.37;4.70;;;;;;;10.20;83.93;102004.84;5030890;28;20224;-71
2023/05/26 00:15:26;;;;;;;26.30;5.23;;;;;;;10.18;84.35;102004.00;5025053;28;20213;-71
2023/05/26 00:17:57;;;;;;;22.33;5.97;;;;;;;10.15;84.18;102009.47;5026956;28;20202;-72
2023/05/26 00:20:24;;;;;;;25.80;5.43;;;;;;;10.13;84.33;102011.31;5026651;28;20273;-70
2023/05/26 00:22:51;;;;;;;22.63;5.53;;;;;;;10.09;84.32;102010.56;5028626;28;20228;-70
2023/05/26 00:25:17;;;;;;;27.73;4.83;;;;;;;10.07;84.93;102008.88;5024045;28;20301;-70
2023/05/26 00:27:44;;;;;;;19.60;4.60;;;;;;;10.04;84.50;102007.19;5023915;28;20202;-69
2023/05/26 00:30:11;;;;;;;19.93;4.67;;;;;;;10.00;84.70;102010.94;5029644;28;20199;-69
2023/05/26 00:32:37;;;;;;;23.40;4.47;;;;;;;9.97;84.86;102010.19;5055219;22;20230;-70
2023/05/26 00:35:06;;;;;;;19.40;4.43;;;;;;;9.97;85.58;102010.19;5044305;28;20210;-71
2023/05/26 00:37:33;;;;;;;20.50;5.80;;;;;;;9.95;85.61;102012.03;5045129;28;20226;-71
2023/05/26 00:39:59;;;;;;;22.63;5.77;;;;;;;9.92;85.55;102009.50;5046237;28;20741;-71
2023/05/26 00:42:26;;;;;;;14.87;4.80;;;;;;;9.89;85.36;102017.59;5027035;28;20725;-70
2023/05/26 00:44:52;;;;;;;19.97;5.27;;;;;;;9.83;85.69;102010.72;5024507;28;20217;-71
2023/05/26 00:47:19;;;;;;;17.37;4.60;;;;;;;9.82;85.74;102024.09;5027995;28;20206;-71
2023/05/26 00:49:46;;;;;;;27.60;5.53;;;;;;;9.78;85.63;102014.47;5028671;28;20213;-71
2023/05/26 00:52:14;;;;;;;18.10;4.73;;;;;;;9.72;86.02;102016.44;5029609;28;20225;-71
2023/05/26 00:54:42;;;;;;;23.60;5.00;;;;;;;9.68;85.92;102012.16;5028492;28;20237;-71
2023/05/26 00:57:09;;;;;;;22.30;5.67;;;;;;;9.66;86.61;102011.38;5029565;28;20652;-70
2023/05/26 00:59:36;;;;;;;20.27;4.50;;;;;;;9.63;86.48;102021.25;5025973;28;20211;-71
2023/05/26 01:02:02;;;;;;;20.93;4.60;;;;;;;9.61;86.28;102012.47;5029426;28;20224;-70
2023/05/26 01:04:29;;;;;;;24.03;5.07;;;;;;;9.59;86.58;102016.97;5027043;28;20211;-71
2023/05/26 01:06:56;;;;;;;19.40;4.57;;;;;;;9.56;86.89;102007.31;5026974;28;20206;-71
2023/05/26 01:09:24;;;;;;;22.80;5.43;;;;;;;9.52;86.26;102018.97;5025928;28;20272;-71
2023/05/26 01:11:57;;;;;;;26.13;4.57;;;;;;;9.50;87.13;102007.53;5029831;28;20229;-71
2023/05/26 01:14:30;;;;;;;20.30;4.80;;;;;;;9.48;86.96;102014.72;5032616;28;20217;-70
2023/05/26 01:17:01;;;;;;;23.23;4.90;;;;;;;9.44;87.32;102012.22;5029839;28;20238;-71
2023/05/26 01:19:56;;;;;;;20.33;4.93;;;;;;;9.38;86.68;102003.53;5032822;28;20225;-70
2023/05/26 01:22:37;;;;;;;24.37;4.50;;;;;;;9.35;87.53;102010.75;5031543;28;20314;-70
2023/05/26 01:25:18;;;;;;;20.20;5.17;;;;;;;9.31;87.29;102003.84;5032976;28;20213;-71
2023/05/26 01:27:47;;;;;;;24.43;6.03;;;;;;;9.28;87.41;102012.78;5031270;28;20213;-70
2023/05/26 01:30:17;;;;;;;22.83;4.33;;;;;;;9.25;87.78;102020.00;5031144;28;20699;-71
2023/05/26 01:32:47;;;;;;;18.50;4.93;;;;;;;9.22;87.87;102014.78;5029938;28;20226;-70
2023/05/26 01:35:14;;;;;;;24.77;5.97;;;;;;;9.20;88.42;102016.63;5032935;28;20218;-71
2023/05/26 01:37:42;;;;;;;18.57;5.00;;;;;;;9.16;88.14;102020.31;5029577;28;20206;-70
2023/05/26 01:40:10;;;;;;;21.53;4.43;;;;;;;9.14;88.57;102022.16;5031320;28;20229;-70
2023/05/26 01:42:41;;;;;;;23.37;3.83;;;;;;;9.11;88.13;102011.66;5031736;28;20218;-71
2023/05/26 01:45:13;;;;;;;17.00;5.40;;;;;;;9.10;88.57;102017.91;5030969;28;20203;-70
2023/05/26 01:47:43;;;;;;;19.13;4.33;;;;;;;9.08;88.68;102022.41;5031750;28;20202;-71
2023/05/26 01:50:12;;;;;;;18.67;4.03;;;;;;;9.05;89.20;102018.06;5032787;28;20210;-72
2023/05/26 01:52:42;;;;;;;18.27;4.70;;;;;;;9.01;88.59;102025.25;5029197;28;20224;-71
2023/05/26 01:55:11;;;;;;;21.70;4.60;;;;;;;8.98;88.61;102025.38;5028602;28;20199;-71
2023/05/26 01:57:39;;;;;;;22.23;5.17;;;;;;;8.95;88.80;102022.84;5029913;28;20226;-71
2023/05/26 02:00:09;;;;;;;23.30;4.50;;;;;;;8.92;89.53;102025.59;5031850;28;20656;-70
2023/05/26 02:02:35;;;;;;;19.77;4.60;;;;;;;8.89;89.13;102020.38;5027894;28;20261;-70
2023/05/26 02:05:03;;;;;;;23.00;5.20;;;;;;;8.87;88.75;102021.34;5031358;28;20728;-71
2023/05/26 02:07:30;;;;;;;19.33;4.67;;;;;;;8.84;89.41;102022.31;5026568;28;20596;-71
2023/05/26 02:09:57;;;;;;;22.63;4.53;;;;;;;8.81;89.49;102024.22;5031592;28;20229;-71
2023/05/26 02:12:23;;;;;;;15.77;4.17;;;;;;;8.77;89.27;102026.13;5024834;28;20226;-71
2023/05/26 02:14:49;;;;;;;16.77;4.17;;;;;;;8.75;89.69;102024.44;5025902;28;20217;-70
2023/05/26 02:17:17;;;;;;;20.87;4.20;;;;;;;8.72;89.76;102033.38;5030639;28;20201;-70
2023/05/26 02:19:43;;;;;;;20.97;5.27;;;;;;;8.68;89.28;102034.38;5030219;28;20297;-70
2023/05/26 02:22:12;;;;;;;20.67;4.80;;;;;;;8.65;90.00;102035.34;5029601;28;20234;-70
2023/05/26 02:24:38;;;;;;;24.00;4.73;;;;;;;8.62;90.68;102030.13;5029385;28;20583;-70
2023/05/26 02:27:06;;;;;;;21.93;4.97;;;;;;;8.61;89.59;102038.16;5029346;28;20980;-70
2023/05/26 02:29:32;;;;;;;23.00;5.63;;;;;;;8.60;90.77;102025.78;5028301;28;20207;-70
2023/05/26 02:31:59;;;;;;;26.87;5.07;;;;;;;8.56;90.54;102030.38;5033559;28;20234;-70
2023/05/26 02:34:25;;;;;;;17.43;4.30;;;;;;;8.53;90.75;102038.44;5028520;28;20591;-70
2023/05/26 02:36:55;;;;;;;19.67;4.40;;;;;;;8.49;90.30;102034.13;5025923;28;20655;-70
2023/05/26 02:39:23;;;;;;;27.13;5.80;;;;;;;8.46;90.71;102044.84;5027247;28;20210;-70
2023/05/26 02:41:49;;;;;;;25.20;5.70;;;;;;;8.45;90.48;102052.84;5029791;28;20226;-70
2023/05/26 02:44:15;;;;;;;20.47;5.13;;;;;;;8.42;91.20;102051.16;5029631;28;20210;-70
2023/05/26 02:46:42;;;;;;;20.93;5.53;;;;;;;8.39;90.38;102053.94;5027404;28;20206;-70
2023/05/26 02:49:08;;;;;;;25.90;4.80;;;;;;;8.37;91.41;102052.25;5029000;28;20199;-69
2023/05/26 02:51:35;;;;;;;22.50;5.00;;;;;;;8.32;90.88;102050.59;5027496;28;20234;-69
2023/05/26 02:54:01;;;;;;;29.07;5.73;;;;;;;8.29;91.74;102053.31;5026890;28;20719;-69
2023/05/26 02:56:29;;;;;;;26.47;5.67;;;;;;;8.26;92.01;102053.41;5029701;28;20214;-69
2023/05/26 02:58:56;;;;;;;25.37;4.87;;;;;;;8.24;92.36;102054.41;5028195;28;20304;-70
2023/05/26 03:01:24;;;;;;;24.77;5.40;;;;;;;8.23;92.35;102052.66;5026451;28;20249;-69
2023/05/26 03:03:50;;;;;;;20.27;5.20;;;;;;;8.20;92.58;102058.94;5024412;28;20294;-69
2023/05/26 03:06:17;;;;;;;20.83;6.07;;;;;;;8.17;92.25;102044.88;5028190;28;20210;-69
2023/05/26 03:08:43;;;;;;;17.13;5.43;;;;;;;8.16;92.38;102046.66;5029147;28;20275;-69
2023/05/26 03:11:10;;;;;;;27.63;4.67;;;;;;;8.14;92.85;102048.50;5021592;28;20571;-70
2023/05/26 03:13:38;;;;;;;17.53;4.57;;;;;;;8.14;93.15;102047.63;5027773;28;20213;-70
2023/05/26 03:16:05;;;;;;;25.67;5.27;;;;;;;8.12;93.64;102058.28;5028408;28;20297;-70
2023/05/26 03:18:32;;;;;;;20.83;4.87;;;;;;;8.11;93.05;102056.53;5028611;28;20206;-70
2023/05/26 03:20:58;;;;;;;22.17;4.40;;;;;;;8.09;93.09;102061.03;5025032;28;20258;-70
2023/05/26 03:23:25;;;;;;;20.90;4.27;;;;;;;8.09;93.63;102063.69;5021298;28;20209;-70
2023/05/26 03:25:52;;;;;;;18.00;4.57;;;;;;;8.07;92.80;102065.50;5028248;28;20209;-70
2023/05/26 03:28:18;;;;;;;24.23;5.60;;;;;;;8.05;93.27;102064.72;5027349;28;20240;-70
2023/05/26 03:30:46;;;;;;;18.97;5.53;;;;;;;8.03;93.37;102069.19;5027607;28;20206;-70
2023/05/26 03:33:12;;;;;;;26.27;5.90;;;;;;;8.02;93.34;102068.31;5025223;28;20229;-70
2023/05/26 03:35:39;;;;;;;30.50;5.43;;;;;;;8.00;93.38;102071.94;5028378;28;20226;-69
2023/05/26 03:38:05;;;;;;;25.90;5.27;;;;;;;7.98;93.49;102071.97;5025610;28;20643;-70
2023/05/26 03:40:32;;;;;;;20.07;4.80;;;;;;;7.97;94.32;102080.84;5028951;28;20765;-70
2023/05/26 03:42:58;;;;;;;19.50;5.00;;;;;;;7.98;94.14;102079.06;5034696;28;20705;-70
2023/05/26 03:45:24;;;;;;;24.50;4.90;;;;;;;7.96;94.34;102076.44;5025782;28;20202;-69
2023/05/26 03:47:52;;;;;;;19.83;5.13;;;;;;;7.96;94.68;102078.22;5030598;28;20705;-70
2023/05/26 03:50:19;;;;;;;21.80;5.20;;;;;;;7.94;94.46;102077.41;5025012;28;20211;-69
2023/05/26 03:52:45;;;;;;;19.90;5.33;;;;;;;7.93;94.80;102079.19;5027689;28;20324;-69
2023/05/26 03:55:12;;;;;;;17.43;4.87;;;;;;;7.93;95.50;102080.97;5033255;28;20199;-70
2023/05/26 03:57:39;;;;;;;26.27;5.97;;;;;;;7.93;95.25;102087.16;5030982;28;20208;-70
2023/05/26 04:00:07;;;;;;;27.80;5.13;;;;;;;7.93;94.91;102078.31;5032138;28;20198;-70
2023/05/26 04:02:34;;;;;;;18.57;5.80;;;;;;;7.93;95.16;102084.50;5020137;28;20231;-70
2023/05/26 04:05:02;;;;;;;25.93;6.50;;;;;;;7.92;95.54;102081.88;5024699;28;20209;-70
2023/05/26 04:07:28;;;;;;;26.43;5.17;;;;;;;7.92;95.34;102087.19;5025705;28;20194;-69
2023/05/26 04:09:55;;;;;;;19.73;5.10;;;;;;;7.93;95.88;102092.44;5028098;28;20574;-70
2023/05/26 04:12:22;;;;;;;28.17;5.40;;;;;;;7.94;95.92;102099.50;5026168;28;20221;-70
2023/05/26 04:14:48;;;;;;;22.07;4.97;;;;;;;7.93;95.69;102094.22;5024010;28;20297;-69
2023/05/26 04:17:15;;;;;;;22.10;5.33;;;;;;;7.94;96.36;102099.50;5022630;28;20284;-69
2023/05/26 04:19:41;;;;;;;26.70;5.10;;;;;;;7.95;96.37;102097.72;5025345;28;20206;-70
2023/05/26 04:22:11;;;;;;;27.13;6.07;;;;;;;7.98;96.32;102108.25;5025673;28;20235;-69
2023/05/26 04:24:37;;;;;;;24.57;6.20;;;;;;;8.00;96.80;102098.47;5021990;28;20595;-70
2023/05/26 04:27:04;;;;;;;24.20;5.07;;;;;;;8.01;97.36;102103.72;5020570;28;20202;-70
2023/05/26 04:29:31;;;;;;;22.83;5.17;;;;;;;8.02;97.23;102097.50;5027274;28;20293;-70
2023/05/26 04:31:58;;;;;;;29.13;5.97;;;;;;;8.05;97.39;102107.16;5024099;28;20235;-70
2023/05/26 04:34:25;;;;;;;20.90;5.17;;;;;;;8.06;97.73;102105.38;5030752;28;20216;-70
2023/05/26 04:36:53;;;;;;;26.60;5.83;;;;;;;8.06;97.17;102106.22;5029355;28;20202;-70
2023/05/26 04:39:20;;;;;;;24.30;5.70;;;;;;;8.09;97.59;102108.78;5018961;28;20210;-70
2023/05/26 04:41:47;;;;;;;23.03;5.90;;;;;;;8.11;97.71;102111.38;5020608;28;20245;-70
2023/05/26 04:44:13;;;;;;;27.13;5.53;;;;;;;8.10;97.11;102121.13;5018432;28;20285;-70
2023/05/26 04:46:40;;;;;;;27.10;5.63;;;;;;;8.12;97.94;102121.97;5020082;28;20210;-70
2023/05/26 04:49:07;;;;;;;21.37;5.27;;;;;;;8.17;98.11;102127.13;5033640;28;20214;-70
2023/05/26 04:51:35;;;;;;;29.63;5.47;;;;;;;8.18;97.85;102127.09;5035304;28;20226;-69
2023/05/26 04:54:01;;;;;;;25.90;5.80;;;;;;;8.22;98.00;102131.41;5017811;28;20761;-69
2023/05/26 04:56:29;;;;;;;24.60;6.07;;;;;;;8.25;97.80;102125.09;5025540;28;20205;-70
2023/05/26 04:58:56;;;;;;;21.30;5.97;;;;;;;8.27;98.46;102124.16;5025406;28;20874;-70
2023/05/26 05:01:22;;;;;;;21.13;5.73;;;;;;;8.30;98.48;102129.38;5028012;28;20237;-69
2023/05/26 05:03:48;;;;;;;24.87;5.83;;;;;;;8.32;98.18;102126.72;5026508;28;20208;-69
2023/05/26 05:06:15;;;;;;;22.20;5.83;;;;;;;8.34;98.23;102123.09;5034367;28;20206;-68
2023/05/26 05:08:42;;;;;;;31.60;6.33;;;;;;;8.36;98.11;102123.06;5023885;28;20214;-69
2023/05/26 05:11:09;;;;;;;26.70;5.83;;;;;;;8.38;97.66;102128.31;5027165;28;20221;-68
2023/05/26 05:13:36;;;;;;;23.03;5.47;;;;;;;8.38;98.19;102131.84;5025494;28;20671;-72
2023/05/26 05:16:03;;;;;;;21.80;5.83;;;;;;;8.42;97.49;102128.16;5030662;28;20678;-71
2023/05/26 05:18:29;;;;;;;30.27;5.87;;;;;;;8.46;97.82;102135.13;5024006;28;20202;-73
2023/05/26 05:20:56;;;;;;;26.73;5.53;;;;;;;8.51;98.31;102137.63;5020736;28;20218;-73
2023/05/26 05:23:22;;;;;;;27.37;5.83;;;;;;;8.55;97.33;102145.47;5023956;28;20230;-74
2023/05/26 05:25:49;;;;;;;25.20;6.03;;;;;;;8.61;97.70;102142.59;5025348;28;20210;-72
2023/05/26 05:28:15;;;;;;;19.67;5.67;;;;;;;8.67;97.48;102145.06;5025135;28;20229;-72
2023/05/26 05:30:43;;;;;;;25.07;5.77;;;;;;;8.73;97.41;102151.97;5022817;28;20209;-73
2023/05/26 05:33:10;;;;;;;26.67;5.93;;;;;;;8.79;97.12;102148.25;5016217;28;20226;-72
2023/05/26 05:35:36;;;;;;;20.60;5.17;;;;;;;8.83;97.10;102156.06;5022758;28;20206;-73
2023/05/26 05:38:02;;;;;;;28.57;5.60;;;;;;;8.90;96.80;102149.66;5022943;28;20217;-73
2023/05/26 05:40:29;;;;;;;20.07;5.47;;;;;;;8.96;97.16;102149.44;5011486;28;20210;-74
2023/05/26 05:42:55;;;;;;;25.13;5.17;;;;;;;9.01;96.92;102168.75;5011690;28;20231;-73
2023/05/26 05:45:22;;;;;;;18.93;5.43;;;;;;;9.05;95.81;102157.13;5015019;28;20214;-71
2023/05/26 05:47:50;;;;;;;23.67;5.07;;;;;;;9.10;95.66;102164.06;5025309;28;20210;-73
2023/05/26 05:50:16;;;;;;;26.83;5.73;;;;;;;9.13;94.56;102161.31;5023957;28;20651;-74
2023/05/26 05:52:43;;;;;;;15.87;5.30;;;;;;;9.17;94.40;102157.63;5026636;28;20222;-72
2023/05/26 05:55:10;;;;;;;20.20;5.60;;;;;;;9.19;93.24;102163.75;5026499;28;20210;-72
2023/05/26 05:57:37;;;;;;;22.20;6.23;;;;;;;9.22;92.67;102155.69;5028475;28;20205;-73
2023/05/26 06:00:04;;;;;;;27.60;5.93;;;;;;;9.25;92.64;102163.56;5026865;28;20210;-72
2023/05/26 06:02:31;;;;;;;23.37;5.13;;;;;;;9.27;91.52;102161.72;5020429;28;20602;-72
2023/05/26 06:04:59;;;;;;;20.77;4.80;;;;;;;9.30;90.58;102162.50;5024710;28;20230;-74
2023/05/26 06:07:25;;;;;;;21.83;6.23;;;;;;;9.34;90.31;102157.91;5028274;28;20215;-73
2023/05/26 06:09:51;;;;;;;23.87;5.00;;;;;;;9.37;89.63;102163.13;5028063;28;20212;-72
2023/05/26 06:12:18;;;;;;;18.30;5.47;;;;;;;9.40;89.69;102165.69;5032761;28;20233;-73
2023/05/26 06:14:45;;;;;;;23.50;5.60;;;;;;;9.44;88.95;102163.81;5020646;28;20214;-73
2023/05/26 06:17:11;;;;;;;12.27;4.03;;;;;;;9.48;88.48;102168.97;5026038;28;20566;-75
2023/05/26 06:19:37;;;;;;;22.53;5.23;;;;;;;9.54;87.62;102171.41;5026904;28;20695;-73
2023/05/26 06:22:05;;;;;;;14.77;4.67;;;;;;;9.63;88.17;102173.75;5036283;28;20733;-74
2023/05/26 06:24:32;;;;;;;22.43;4.73;;;;;;;9.72;87.41;102168.09;5031751;28;20213;-74
2023/05/26 06:26:58;;;;;;;17.13;4.63;;;;;;;9.80;86.38;102175.81;5028210;28;20222;-73
2023/05/26 06:29:25;;;;;;;24.97;4.97;;;;;;;9.82;85.52;102173.09;5035352;28;20210;-74
2023/05/26 06:31:51;;;;;;;19.60;4.70;;;;;;;9.84;84.96;102168.59;5047571;22;20324;-71
2023/05/26 06:34:18;;;;;;;19.97;5.17;;;;;;;9.90;84.86;102173.66;5023876;28;20412;-71
2023/05/26 06:36:44;;;;;;;21.37;5.23;;;;;;;9.98;84.70;102176.94;5023723;28;20209;-70
2023/05/26 06:39:12;;;;;;;17.67;4.77;;;;;;;10.02;83.99;102179.44;5022020;28;20207;-69
2023/05/26 06:41:38;;;;;;;16.10;4.83;;;;;;;10.07;83.38;102177.44;5019142;28;20224;-69
2023/05/26 06:44:05;;;;;;;20.77;5.20;;;;;;;10.14;82.70;102182.56;5005908;28;20214;-72
2023/05/26 06:46:31;;;;;;;21.47;5.10;;;;;;;10.20;82.30;102179.72;4999955;28;20207;-70
2023/05/26 06:48:58;;;;;;;18.83;4.67;;;;;;;10.27;81.92;102181.19;5001792;28;20581;-70
2023/05/26 06:51:24;;;;;;;18.53;5.00;;;;;;;10.34;81.77;102183.59;5000234;28;20201;-69
2023/05/26 06:53:51;;;;;;;16.53;4.13;;;;;;;10.40;80.56;102191.31;5003509;28;20696;-70
2023/05/26 06:56:19;;;;;;;15.70;4.53;;;;;;;10.47;80.30;102186.63;5005154;28;20215;-70
2023/05/26 06:58:46;;;;;;;23.43;5.30;;;;;;;10.51;80.24;102187.41;5004017;28;20297;-69
2023/05/26 07:01:12;;;;;;;23.27;5.17;;;;;;;10.57;79.92;102187.16;5008690;28;20683;-70
2023/05/26 07:03:39;;;;;;;24.57;5.30;;;;;;;10.64;79.39;102199.31;5004747;28;20224;-70
2023/05/26 07:06:05;;;;;;;22.33;4.97;;;;;;;10.68;78.24;102190.28;5001678;28;20928;-71
2023/05/26 07:08:34;;;;;;;20.13;5.23;;;;;;;10.73;78.14;102188.31;4998599;28;20229;-70
2023/05/26 07:11:00;;;;;;;16.50;4.73;;;;;;;10.79;77.74;102188.03;5003721;28;20203;-71
2023/05/26 07:13:28;;;;;;;21.30;5.27;;;;;;;10.90;78.04;102196.50;5001871;28;20230;-68
2023/05/26 07:15:55;;;;;;;23.10;6.07;;;;;;;11.06;77.98;102188.75;5002602;28;20705;-71
2023/05/26 07:18:21;;;;;;;16.40;4.77;;;;;;;11.19;77.34;102197.09;5007034;28;20708;-71
2023/05/26 07:20:48;;;;;;;23.90;4.73;;;;;;;11.29;76.78;102188.63;5003260;28;20210;-71
2023/05/26 07:23:15;;;;;;;25.03;6.07;;;;;;;11.45;76.82;102199.56;5000003;28;20262;-69
2023/05/26 07:25:41;;;;;;;21.03;5.57;;;;;;;11.65;76.97;102202.22;4994729;28;20207;-70
2023/05/26 07:28:07;;;;;;;24.03;5.17;;;;;;;11.84;76.48;102202.31;5000202;28;20214;-70
2023/05/26 07:30:35;;;;;;;25.57;5.30;;;;;;;12.01;75.39;102204.22;4999746;28;20628;-70
2023/05/26 07:33:02;;;;;;;18.10;4.67;;;;;;;12.14;74.53;102206.31;5001881;28;20769;-70
2023/05/26 07:35:28;;;;;;;24.80;5.50;;;;;;;12.29;73.94;102201.19;5002854;28;20210;-70
2023/05/26 07:37:56;;;;;;;21.93;5.03;;;;;;;12.49;73.50;102201.16;5003601;28;20670;-70
2023/05/26 07:40:22;;;;;;;16.97;4.10;;;;;;;12.65;71.52;102203.97;5002857;28;20207;-68
2023/05/26 07:42:49;;;;;;;16.90;4.40;;;;;;;12.74;70.29;102207.06;5003179;28;20234;-70
2023/05/26 07:45:16;;;;;;;20.67;5.23;;;;;;;12.78;69.62;102202.44;5002363;28;20425;-69
2023/05/26 07:47:44;;;;;;;20.30;4.90;;;;;;;12.88;68.65;102202.88;4999799;28;20210;-70
2023/05/26 07:50:10;;;;;;;21.63;5.03;;;;;;;13.00;68.95;102195.13;4999634;28;20212;-69
2023/05/26 07:52:37;;;;;;;20.87;5.43;;;;;;;13.16;68.48;102182.75;4996962;28;20231;-70
2023/05/26 07:55:03;;;;;;;22.13;5.60;;;;;;;13.32;67.20;102187.31;5003378;28;20219;-68
2023/05/26 07:57:30;;;;;;;22.13;5.10;;;;;;;13.47;67.42;102187.41;5004484;28;20211;-70
2023/05/26 07:59:56;;;;;;;23.73;5.23;;;;;;;13.61;66.66;102189.41;5003648;28;20209;-69
2023/05/26 08:02:23;;;;;;;18.47;4.87;;;;;;;13.72;65.70;102189.69;4999903;28;20710;-68
2023/05/26 08:04:51;;;;;;;25.63;5.53;;;;;;;13.86;64.90;102188.97;5002463;28;20207;-70
2023/05/26 08:07:17;;;;;;;14.07;4.83;;;;;;;14.00;64.39;102183.75;5000706;28;20208;-70
2023/05/26 08:09:44;;;;;;;14.37;4.97;;;;;;;14.14;64.04;102177.66;5004641;28;20689;-70
2023/05/26 08:12:10;;;;;;;18.67;4.77;;;;;;;14.23;62.63;102182.50;5006703;28;20219;-69
2023/05/26 08:14:37;;;;;;;16.50;4.67;;;;;;;14.33;62.20;102183.72;4995698;28;20213;-69
2023/05/26 08:17:03;;;;;;;22.97;4.83;;;;;;;14.43;61.39;102176.97;5008289;28;20203;-70
2023/05/26 08:19:30;;;;;;;16.63;4.70;;;;;;;14.50;60.48;102180.19;4997644;28;20207;-68
2023/05/26 08:21:58;;;;;;;16.17;5.37;;;;;;;14.59;61.06;102172.47;4997591;28;20233;-69
2023/05/26 08:24:25;;;;;;;17.77;4.07;;;;;;;14.73;61.27;102181.56;5005718;28;20243;-69
2023/05/26 08:26:52;;;;;;;16.57;4.37;;;;;;;14.81;59.99;102172.13;5003993;28;20206;-69
2023/05/26 08:29:18;;;;;;;19.17;4.77;;;;;;;14.92;60.30;102172.38;5000300;28;20581;-68
2023/05/26 08:31:45;;;;;;;21.97;5.20;;;;;;;15.06;59.40;102171.56;5000284;28;20238;-68
2023/05/26 08:34:11;;;;;;;14.27;4.00;;;;;;;15.19;59.08;102177.13;5001317;28;20209;-68
2023/05/26 08:36:38;;;;;;;13.80;4.03;;;;;;;15.31;58.89;102171.00;4993777;28;20209;-67
2023/05/26 08:39:05;;;;;;;19.30;4.27;;;;;;;15.41;57.83;102169.50;5003005;28;20209;-68
2023/05/26 08:41:37;;;;;;;18.60;4.83;;;;;;;15.53;57.80;102178.66;5003466;28;20217;-67
2023/05/26 08:44:05;;;;;;;16.17;5.30;;;;;;;15.65;57.19;102177.09;4998221;28;20225;-67
2023/05/26 08:46:32;;;;;;;17.07;4.97;;;;;;;15.69;56.30;102179.50;5000476;28;20228;-67
2023/05/26 08:48:59;;;;;;;16.40;5.03;;;;;;;15.77;56.06;102173.66;5001807;28;20665;-67
2023/05/26 08:51:28;;;;;;;17.87;5.30;;;;;;;15.83;55.54;102171.47;4999892;28;20218;-65
2023/05/26 08:53:55;;;;;;;22.80;4.57;;;;;;;15.90;55.59;102170.13;4999764;28;20206;-67
2023/05/26 08:56:23;;;;;;;18.00;4.97;;;;;;;15.93;54.29;102161.91;5001007;28;20625;-69
2023/05/26 08:58:52;;;;;;;17.03;4.20;;;;;;;16.02;54.79;102162.28;5002172;28;20209;-67
2023/05/26 09:01:18;;;;;;;16.67;4.73;;;;;;;16.11;55.10;102165.25;5001864;28;20229;-68
2023/05/26 09:03:44;;;;;;;16.70;4.70;;;;;;;16.22;54.25;102159.19;5000408;28;20233;-66
2023/05/26 09:06:11;;;;;;;17.07;4.43;;;;;;;16.28;53.64;102169.56;5001395;28;20213;-66
2023/05/26 09:08:37;;;;;;;13.70;4.47;;;;;;;16.34;53.40;102166.47;4997556;28;20213;-68
2023/05/26 09:11:20;;;;;;;14.93;4.07;;;;;;;16.43;53.66;102168.59;4997801;28;20213;-70
2023/05/26 09:13:52;;;;;;;14.47;4.20;;;;;;;16.51;53.46;102168.94;5002842;28;20910;-65
2023/05/26 09:16:21;;;;;;;16.47;4.47;;;;;;;16.63;53.18;102165.53;4998978;28;20239;-66
2023/05/26 09:18:48;;;;;;;15.27;4.00;;;;;;;16.67;52.68;102158.97;5005241;28;20202;-67
2023/05/26 09:21:14;;;;;;;14.10;4.50;;;;;;;16.81;52.35;102158.09;4996385;28;20218;-67
2023/05/26 09:23:41;;;;;;;17.20;4.50;;;;;;;16.95;52.71;102159.84;5004876;28;20227;-67
2023/05/26 09:26:11;;;;;;;19.70;4.60;;;;;;;16.98;51.81;102160.53;5002968;28;20207;-65
2023/05/26 09:28:47;;;;;;;15.43;4.80;;;;;;;16.97;51.69;102155.25;5000766;28;20207;-66
2023/05/26 09:31:15;;;;;;;14.37;4.17;;;;;;;17.08;51.43;102160.75;4998534;28;20219;-68
2023/05/26 09:33:46;;;;;;;14.97;5.17;;;;;;;17.22;51.15;102159.81;5003042;28;20213;-66
2023/05/26 09:36:13;;;;;;;13.33;4.20;;;;;;;17.32;50.54;102159.13;5009352;28;20214;-68
2023/05/26 09:38:42;;;;;;;19.70;4.80;;;;;;;17.42;50.42;102155.78;5005966;28;20240;-66
2023/05/26 09:41:08;;;;;;;13.53;4.00;;;;;;;17.54;50.56;102158.53;5002313;28;20207;-66
2023/05/26 09:43:38;;;;;;;16.93;4.50;;;;;;;17.67;49.72;102166.66;4996754;28;20232;-67
2023/05/26 09:46:07;;;;;;;12.70;4.47;;;;;;;17.75;48.90;102161.56;5005926;28;20212;-65
2023/05/26 09:48:36;;;;;;;12.30;4.00;;;;;;;17.79;48.32;102162.22;5002578;28;20220;-67
2023/05/26 09:51:03;;;;;;;11.53;4.23;;;;;;;17.84;48.62;102160.94;5006079;28;20247;-68
2023/05/26 09:53:29;;;;;;;18.00;4.37;;;;;;;17.90;48.42;102152.44;5008724;28;20347;-66
2023/05/26 09:55:57;;;;;;;17.70;5.13;;;;;;;17.98;48.24;102157.28;5006169;28;20574;-69
2023/05/26 09:58:25;;;;;;;17.40;5.50;;;;;;;18.10;47.87;102152.84;5004026;28;20229;-68
2023/05/26 10:00:54;;;;;;;14.63;3.83;;;;;;;18.18;47.72;102155.88;4999530;28;20206;-68
2023/05/26 10:03:21;;;;;;;13.73;4.33;;;;;;;18.26;46.81;102153.50;5003089;28;20736;-67
2023/05/26 10:05:51;;;;;;;11.63;4.47;;;;;;;18.26;46.21;102157.06;5006997;28;20217;-68
2023/05/26 10:08:19;;;;;;;15.60;4.77;;;;;;;18.32;46.76;102147.63;5003001;28;20213;-66
2023/05/26 10:10:48;;;;;;;18.07;5.23;;;;;;;18.41;45.98;102146.13;5003415;28;20207;-67
2023/05/26 10:13:16;;;;;;;15.90;5.10;;;;;;;18.42;45.95;102150.56;4997619;28;20325;-68
2023/05/26 10:15:45;;;;;;;16.33;4.53;;;;;;;18.47;45.88;102133.03;4996762;28;20704;-67
2023/05/26 10:18:11;;;;;;;12.90;3.63;;;;;;;18.48;45.54;102142.00;4995346;28;20561;-68
2023/05/26 10:20:39;;;;;;;15.33;3.83;;;;;;;18.53;45.21;102139.81;5002289;28;20730;-65
2023/05/26 10:23:12;;;;;;;15.13;4.93;;;;;;;18.55;45.26;102141.44;5005290;28;20318;-64
2023/05/26 10:25:47;;;;;;;19.00;4.93;;;;;;;18.56;44.78;102131.50;4997971;28;20223;-67
2023/05/26 10:28:23;;;;;;;16.37;3.80;;;;;;;18.62;44.63;102140.06;5002554;28;20205;-65
2023/05/26 10:30:57;;;;;;;13.63;4.33;;;;;;;18.64;44.54;102131.81;5001022;28;20635;-69
2023/05/26 10:33:38;;;;;;;12.77;4.17;;;;;;;18.68;44.20;102134.19;5003347;28;20231;-69
2023/05/26 10:36:07;;;;;;;20.33;4.60;;;;;;;18.71;43.87;102136.66;5002394;28;20731;-67
2023/05/26 10:38:38;;;;;;;15.07;4.47;;;;;;;18.77;43.95;102142.59;5001972;28;20202;-68
2023/05/26 10:41:10;;;;;;;14.13;4.17;;;;;;;18.83;43.87;102142.97;5006368;28;20637;-66
2023/05/26 10:43:37;;;;;;;16.00;4.40;;;;;;;18.88;43.79;102134.56;5003993;28;20860;-68
2023/05/26 10:46:05;;;;;;;13.17;4.73;;;;;;;18.96;43.10;102133.00;5007564;28;20217;-66
2023/05/26 10:48:35;;;;;;;13.23;4.47;;;;;;;19.03;42.83;102130.69;5003346;28;20212;-68
2023/05/26 10:51:25;;;;;;;12.53;3.70;;;;;;;19.07;42.44;102132.19;5002809;28;20222;-67
2023/05/26 10:53:56;;;;;;;12.07;4.33;;;;;;;19.08;41.69;102126.69;4998717;28;20210;-67
2023/05/26 10:56:25;;;;;;;14.57;4.80;;;;;;;19.08;41.10;102120.41;4991362;28;20269;-69
2023/05/26 10:58:57;;;;;;;13.37;3.63;;;;;;;19.10;41.44;102121.16;5000117;28;20210;-67
2023/05/26 11:01:29;;;;;;;13.17;4.20;;;;;;;19.16;41.30;102118.00;4993390;28;20213;-68
2023/05/26 11:04:08;;;;;;;12.67;4.30;;;;;;;19.19;40.59;102122.28;4991777;28;20942;-68
2023/05/26 11:06:42;;;;;;;12.83;3.50;;;;;;;19.23;40.66;102116.53;4998650;28;20259;-67
2023/05/26 11:09:10;;;;;;;15.13;4.13;;;;;;;19.28;40.83;102122.47;4998753;28;20210;-66
2023/05/26 11:11:38;;;;;;;13.53;4.07;;;;;;;19.38;40.21;102118.06;5003919;28;20235;-67
2023/05/26 11:14:09;;;;;;;12.97;3.63;;;;;;;19.49;40.27;102116.38;5003221;28;20262;-67
2023/05/26 11:16:37;;;;;;;15.00;4.10;;;;;;;19.61;39.52;102115.44;5001641;28;20218;-67
2023/05/26 11:19:05;;;;;;;9.83;3.50;;;;;;;19.67;39.30;102123.09;5005166;28;20205;-70
2023/05/26 11:21:33;;;;;;;12.40;3.60;;;;;;;19.68;38.89;102122.09;5000325;28;20227;-67
2023/05/26 11:24:00;;;;;;;11.27;3.40;;;;;;;19.66;37.99;102124.06;5002615;28;20831;-68